createdAt,value
2018-08-19T00:02:11.864Z,9.57
2018-08-19T00:04:39.128Z,10.27
2018-08-19T00:07:06.534Z,9.87
2018-08-19T00:09:34.491Z,10.30
2018-08-19T00:12:01.718Z,8.97
2018-08-19T00:14:32.265Z,8.87
2018-08-19T00:17:01.487Z,13.67
2018-08-19T00:19:29.172Z,8.97
2018-08-19T00:21:56.522Z,10.53
2018-08-19T00:24:23.767Z,11.90
2018-08-19T00:26:50.958Z,9.83
2018-08-19T00:29:24.077Z,9.37
2018-08-19T00:31:51.974Z,8.97
2018-08-19T00:34:24.838Z,11.13
2018-08-19T00:36:52.096Z,10.00
2018-08-19T00:39:19.337Z,10.27
2018-08-19T00:41:46.605Z,9.67
2018-08-19T00:44:13.819Z,10.27
2018-08-19T00:46:41.107Z,9.80
2018-08-19T00:49:08.433Z,10.17
2018-08-19T00:51:37.149Z,9.17
2018-08-19T00:54:04.371Z,10.40
2018-08-19T00:56:31.584Z,9.90
2018-08-19T00:58:58.783Z,10.40
2018-08-19T01:01:31.536Z,9.43
2018-08-19T01:03:59.038Z,9.93
2018-08-19T01:06:26.285Z,9.50
2018-08-19T01:08:53.743Z,9.50
2018-08-19T01:11:31.587Z,8.93
2018-08-19T01:13:58.801Z,8.77
2018-08-19T01:16:26.361Z,8.37
2018-08-19T01:18:59.157Z,8.67
2018-08-19T01:21:26.841Z,9.13
2018-08-19T01:23:54.090Z,8.47
2018-08-19T01:26:21.465Z,9.63
2018-08-19T01:28:48.948Z,9.00
2018-08-19T01:31:16.187Z,9.50
2018-08-19T01:33:43.407Z,8.77
2018-08-19T01:36:10.591Z,9.10
2018-08-19T01:38:37.835Z,8.70
2018-08-19T01:41:05.141Z,8.57
2018-08-19T01:43:32.343Z,8.60
2018-08-19T01:46:00.043Z,8.90
2018-08-19T01:48:27.380Z,10.07
2018-08-19T01:50:54.605Z,7.50
2018-08-19T01:53:21.825Z,8.70
2018-08-19T01:55:49.051Z,8.57
2018-08-19T01:58:16.291Z,7.73
2018-08-19T02:00:43.561Z,7.67
2018-08-19T02:03:10.789Z,8.23
2018-08-19T02:05:38.044Z,8.27
2018-08-19T02:08:05.417Z,8.57
2018-08-19T02:10:33.251Z,8.63
2018-08-19T02:13:00.729Z,8.13
2018-08-19T02:15:29.332Z,9.63
2018-08-19T02:18:02.939Z,8.10
2018-08-19T02:20:31.871Z,7.90
2018-08-19T02:23:00.199Z,8.17
2018-08-19T02:25:31.721Z,8.40
2018-08-19T02:27:58.931Z,8.80
2018-08-19T02:30:26.165Z,7.80
2018-08-19T02:32:53.715Z,7.67
2018-08-19T02:35:20.921Z,7.83
2018-08-19T02:37:48.193Z,7.03
2018-08-19T02:42:51.909Z,6.97
2018-08-19T02:45:20.075Z,7.87
2018-08-19T02:47:48.285Z,7.60
2018-08-19T02:50:16.538Z,7.23
2018-08-19T02:52:44.914Z,14.37
2018-08-19T02:55:13.148Z,7.73
2018-08-19T02:57:41.616Z,6.90
2018-08-19T03:00:11.387Z,7.80
2018-08-19T03:02:40.823Z,8.03
2018-08-19T03:05:10.243Z,7.90
2018-08-19T03:07:38.471Z,7.10
2018-08-19T03:10:12.806Z,7.77
2018-08-19T03:12:41.358Z,7.80
2018-08-19T03:15:10.736Z,7.83
2018-08-19T03:17:39.285Z,6.23
2018-08-19T03:20:09.918Z,7.63
2018-08-19T03:22:38.384Z,7.87
2018-08-19T03:25:07.085Z,6.80
2018-08-19T03:27:35.278Z,7.03
2018-08-19T03:30:04.986Z,7.30
2018-08-19T03:32:33.177Z,6.63
2018-08-19T03:35:19.368Z,9.33
2018-08-19T03:37:49.592Z,8.50
2018-08-19T03:40:17.725Z,7.93
2018-08-19T03:42:45.867Z,8.20
2018-08-19T03:45:18.454Z,6.90
2018-08-19T03:47:47.060Z,8.17
2018-08-19T03:50:21.177Z,7.73
2018-08-19T03:52:49.899Z,6.93
2018-08-19T03:55:25.635Z,7.23
2018-08-19T03:57:57.351Z,7.20
2018-08-19T04:00:25.687Z,7.20
2018-08-19T04:02:53.900Z,6.70
2018-08-19T04:05:39.788Z,6.37
2018-08-19T04:08:09.288Z,6.67
2018-08-19T04:10:38.550Z,6.70
2018-08-19T04:13:42.710Z,6.70
2018-08-19T04:16:11.748Z,6.77
2018-08-19T04:18:41.404Z,7.67
2018-08-19T04:21:10.763Z,7.90
2018-08-19T04:23:41.160Z,8.50
2018-08-19T04:26:09.477Z,6.97
2018-08-19T04:28:39.076Z,7.10
2018-08-19T04:31:13.504Z,5.73
2018-08-19T04:33:42.064Z,5.40
2018-08-19T04:36:12.043Z,5.77
2018-08-19T04:38:40.597Z,5.80
2018-08-19T04:41:08.924Z,5.20
2018-08-19T04:43:37.075Z,5.87
2018-08-19T04:46:05.423Z,4.87
2018-08-19T04:48:33.636Z,5.13
2018-08-19T04:51:01.798Z,4.50
2018-08-19T04:53:31.568Z,4.83
2018-08-19T04:56:00.225Z,4.80
2018-08-19T04:58:28.549Z,4.47
2018-08-19T05:00:56.829Z,4.33
2018-08-19T05:03:25.003Z,4.60
2018-08-19T05:05:53.383Z,5.27
2018-08-19T05:08:21.748Z,5.50
2018-08-19T05:10:49.858Z,5.43
2018-08-19T05:13:18.042Z,5.03
2018-08-19T05:15:46.237Z,4.80
2018-08-19T05:18:14.617Z,4.33
2018-08-19T05:20:42.765Z,4.53
2018-08-19T05:23:11.036Z,5.07
2018-08-19T05:25:44.461Z,4.93
2018-08-19T05:28:12.652Z,4.73
2018-08-19T05:30:40.790Z,5.13
2018-08-19T05:33:08.945Z,4.80
2018-08-19T05:35:37.153Z,4.63
2018-08-19T05:38:05.617Z,4.63
2018-08-19T05:40:33.683Z,4.93
2018-08-19T05:43:01.828Z,4.90
2018-08-19T05:45:30.141Z,4.90
2018-08-19T06:01:12.499Z,4.33
2018-08-19T06:03:40.601Z,5.03
2018-08-19T06:06:08.921Z,5.30
2018-08-19T06:08:37.079Z,4.60
2018-08-19T06:11:05.353Z,4.33
2018-08-19T06:13:33.557Z,5.53
2018-08-19T06:16:01.781Z,4.50
2018-08-19T06:18:30.030Z,4.53
2018-08-19T06:20:58.253Z,4.90
2018-08-19T06:23:26.431Z,5.23
2018-08-19T06:25:54.939Z,4.70
2018-08-19T06:28:23.113Z,4.93
2018-08-19T06:30:51.265Z,4.40
2018-08-19T06:33:19.436Z,4.57
2018-08-19T06:35:47.678Z,4.93
2018-08-19T06:38:15.797Z,4.73
2018-08-19T06:40:43.987Z,4.60
2018-08-19T06:43:12.223Z,4.23
2018-08-19T06:45:40.509Z,5.43
2018-08-19T06:48:09.004Z,4.70
2018-08-19T06:50:37.380Z,4.53
2018-08-19T06:53:05.673Z,18.43
2018-08-19T06:55:33.868Z,3.93
2018-08-19T06:58:02.273Z,4.60
2018-08-19T07:00:31.510Z,4.70
2018-08-19T07:03:02.872Z,5.13
2018-08-19T07:05:31.422Z,3.83
2018-08-19T07:07:59.574Z,4.33
2018-08-19T07:10:33.184Z,4.23
2018-08-19T07:13:09.480Z,3.90
2018-08-19T07:17:22.515Z,3.40
2018-08-19T07:19:50.877Z,3.10
2018-08-19T07:22:20.561Z,3.30
2018-08-19T07:24:48.942Z,3.20
2018-08-19T07:27:17.301Z,3.43
2018-08-19T07:29:45.608Z,2.97
2018-08-19T07:32:14.223Z,3.70
2018-08-19T07:34:42.393Z,3.17
2018-08-19T07:37:10.700Z,2.70
2018-08-19T07:39:45.639Z,4.43
2018-08-19T07:42:14.213Z,3.17
2018-08-19T07:44:42.349Z,3.63
2018-08-19T07:47:10.505Z,2.93
2018-08-19T07:49:38.681Z,3.03
2018-08-19T07:52:06.179Z,2.80
2018-08-19T07:54:33.544Z,3.10
2018-08-19T07:57:23.495Z,2.77
2018-08-19T07:59:52.163Z,2.63
2018-08-19T08:02:20.365Z,3.67
2018-08-19T08:04:48.551Z,3.03
2018-08-19T08:07:16.727Z,3.43
2018-08-19T08:09:44.930Z,3.17
2018-08-19T08:12:14.276Z,4.80
2018-08-19T08:14:48.136Z,3.47
2018-08-19T08:17:16.315Z,3.60
2018-08-19T08:19:49.837Z,4.40
2018-08-19T08:22:18.191Z,3.27
2018-08-19T08:24:45.468Z,3.00
2018-08-19T08:27:12.719Z,2.77
2018-08-19T08:29:40.041Z,3.17
2018-08-19T08:32:08.362Z,2.73
2018-08-19T08:34:36.535Z,3.00
2018-08-19T08:37:06.109Z,2.90
2018-08-19T08:39:36.203Z,2.77
2018-08-19T08:42:04.920Z,3.00
2018-08-19T08:44:33.198Z,5.43
2018-08-19T08:47:05.983Z,2.53
2018-08-19T08:49:39.717Z,3.23
2018-08-19T08:52:14.573Z,3.27
2018-08-19T08:54:47.520Z,3.43
2018-08-19T08:57:15.893Z,3.23
2018-08-19T08:59:44.211Z,4.80
2018-08-19T09:02:45.438Z,3.80
2018-08-19T09:09:55.953Z,3.47
2018-08-19T09:12:35.377Z,3.00
